Time;durP1;ratioP1;P1;durP2;ratioP2;P2;SDS_P1;SDS_P2;PMS_P1;PMS_P2;Temp;Humidity;BMP_temperature;BMP_pressure;BME280_temperature;BME280_humidity;BME280_pressure;Samples;Min_cycle;Max_cycle;Signal;HPM_P1;HPM_P2
2024/01/28 00:00:16;;;;;;;28.65;18.90;;;1.30;92.10;;;;;;5044325;28;20029;-73
2024/01/28 00:02:42;;;;;;;29.77;20.33;;;1.20;91.90;;;;;;5039371;28;20027;-73
2024/01/28 00:05:11;;;;;;;30.58;19.10;;;1.10;92.00;;;;;;5034225;28;20029;-73
2024/01/28 00:07:37;;;;;;;27.88;19.23;;;1.10;92.00;;;;;;5040724;28;20021;-73
2024/01/28 00:10:03;;;;;;;31.90;20.17;;;1.10;92.10;;;;;;5029318;28;20036;-73
2024/01/28 00:12:28;;;;;;;32.47;22.50;;;1.00;92.10;;;;;;5049236;28;20190;-73
2024/01/28 00:14:54;;;;;;;36.90;22.50;;;0.90;92.10;;;;;;5037790;28;20436;-83
2024/01/28 00:17:20;;;;;;;40.42;24.30;;;0.90;92.30;;;;;;5038964;28;20335;-73
2024/01/28 00:19:45;;;;;;;34.75;21.55;;;0.90;92.40;;;;;;5043275;28;20020;-74
2024/01/28 00:22:11;;;;;;;30.70;20.40;;;0.90;92.60;;;;;;5045316;28;20507;-73
2024/01/28 00:24:36;;;;;;;33.00;20.67;;;0.80;92.60;;;;;;5042589;28;20021;-73
2024/01/28 00:27:02;;;;;;;32.30;21.65;;;0.80;92.70;;;;;;5039266;28;20029;-73
2024/01/28 00:29:29;;;;;;;32.25;21.20;;;0.80;92.80;;;;;;5044925;28;20017;-74
2024/01/28 00:32:01;;;;;;;31.17;19.40;;;0.80;93.00;;;;;;5034458;28;20021;-73
2024/01/28 00:34:27;;;;;;;33.13;20.10;;;0.80;93.20;;;;;;5039935;28;20391;-74
2024/01/28 00:36:53;;;;;;;29.05;19.85;;;0.80;93.30;;;;;;5040041;28;20080;-74
2024/01/28 00:39:19;;;;;;;31.98;19.70;;;0.80;93.40;;;;;;5043170;28;20034;-73
2024/01/28 00:41:45;;;;;;;29.17;18.85;;;0.80;93.40;;;;;;5041735;28;20025;-74
2024/01/28 00:44:10;;;;;;;28.83;18.30;;;0.80;93.50;;;;;;5043044;28;20064;-80
2024/01/28 00:46:36;;;;;;;26.77;17.55;;;0.90;93.50;;;;;;5036952;28;20017;-74
2024/01/28 00:49:03;;;;;;;25.83;17.67;;;0.90;93.50;;;;;;5036484;28;20034;-73
2024/01/28 00:51:29;;;;;;;28.65;18.83;;;1.00;93.50;;;;;;5040854;28;20446;-72
2024/01/28 00:53:55;;;;;;;29.15;17.55;;;1.00;93.50;;;;;;5036403;28;20061;-73
2024/01/28 00:56:20;;;;;;;24.38;15.48;;;1.00;93.60;;;;;;5045062;28;20221;-74
2024/01/28 00:58:46;;;;;;;24.67;15.80;;;1.00;93.50;;;;;;5052769;28;20021;-73
2024/01/28 01:01:12;;;;;;;31.00;15.38;;;1.00;93.40;;;;;;5052276;28;20434;-73
2024/01/28 01:03:38;;;;;;;24.10;15.32;;;1.10;93.50;;;;;;5054908;28;20013;-73
2024/01/28 01:06:05;;;;;;;22.83;13.57;;;1.10;93.50;;;;;;5049840;28;20357;-73
2024/01/28 01:08:32;;;;;;;24.00;13.98;;;1.10;93.30;;;;;;5036847;28;20086;-73
2024/01/28 01:10:58;;;;;;;24.52;14.82;;;1.10;93.30;;;;;;5039431;28;20019;-73
2024/01/28 01:13:24;;;;;;;22.58;14.50;;;1.10;93.20;;;;;;5043592;28;20035;-73
2024/01/28 01:15:50;;;;;;;23.85;14.25;;;1.10;93.20;;;;;;5029279;28;20113;-75
2024/01/28 01:18:15;;;;;;;26.58;13.32;;;1.10;93.10;;;;;;5041712;28;20021;-73
2024/01/28 01:20:41;;;;;;;24.92;14.32;;;1.10;93.10;;;;;;5037968;28;20422;-72
2024/01/28 01:23:07;;;;;;;25.63;14.13;;;1.10;93.10;;;;;;5035508;28;20063;-74
2024/01/28 01:25:32;;;;;;;21.27;14.13;;;1.00;93.10;;;;;;5037999;28;20121;-73
2024/01/28 01:27:58;;;;;;;23.27;14.13;;;1.00;93.10;;;;;;5038217;28;20174;-73
2024/01/28 01:30:24;;;;;;;21.67;13.02;;;1.00;93.00;;;;;;5032217;28;20359;-73
2024/01/28 01:32:50;;;;;;;23.40;13.32;;;1.00;93.00;;;;;;5045048;28;20036;-73
2024/01/28 01:35:15;;;;;;;22.30;14.20;;;0.90;93.00;;;;;;5041299;28;20048;-73
2024/01/28 01:37:41;;;;;;;22.50;12.85;;;0.90;92.90;;;;;;5038404;28;20016;-73
2024/01/28 01:40:07;;;;;;;21.70;13.57;;;0.90;92.90;;;;;;5035578;28;20053;-73
2024/01/28 01:42:33;;;;;;;17.55;12.00;;;0.90;92.90;;;;;;5036263;28;20021;-73
2024/01/28 01:44:59;;;;;;;25.48;12.88;;;0.80;92.90;;;;;;5040946;28;20132;-73
2024/01/28 01:47:28;;;;;;;20.35;12.45;;;0.90;93.00;;;;;;5027008;28;20409;-73
2024/01/28 01:49:54;;;;;;;23.55;13.18;;;0.90;92.90;;;;;;5037436;28;20036;-74
2024/01/28 01:52:21;;;;;;;25.70;13.73;;;0.80;92.80;;;;;;5046245;28;20116;-73
2024/01/28 01:54:47;;;;;;;19.60;12.02;;;0.70;92.80;;;;;;5032910;28;20029;-73
2024/01/28 01:57:14;;;;;;;19.92;12.40;;;0.70;92.90;;;;;;5041187;28;20383;-73
2024/01/28 01:59:41;;;;;;;20.92;13.88;;;0.70;92.80;;;;;;5034025;28;20037;-82
2024/01/28 02:02:10;;;;;;;21.52;13.60;;;0.60;92.80;;;;;;5040154;28;20028;-73
2024/01/28 02:04:36;;;;;;;21.10;12.93;;;0.70;92.90;;;;;;5045963;28;20034;-74
2024/01/28 02:07:02;;;;;;;24.48;13.98;;;0.70;92.90;;;;;;5041688;28;20063;-73
2024/01/28 02:09:28;;;;;;;25.95;14.85;;;0.70;92.90;;;;;;5044015;28;20124;-73
2024/01/28 02:11:54;;;;;;;22.45;14.20;;;0.70;93.00;;;;;;5046642;28;20033;-74
2024/01/28 02:14:24;;;;;;;27.15;16.58;;;0.70;93.00;;;;;;5038410;28;20029;-74
2024/01/28 02:16:50;;;;;;;23.08;15.45;;;0.70;92.90;;;;;;5029621;28;20013;-83
2024/01/28 02:19:19;;;;;;;27.13;16.10;;;0.60;93.00;;;;;;5042515;28;20480;-73
2024/01/28 02:21:45;;;;;;;26.95;16.48;;;0.60;93.00;;;;;;5041175;28;20116;-73
2024/01/28 02:24:13;;;;;;;22.85;14.90;;;0.60;93.00;;;;;;5041343;28;20198;-73
2024/01/28 02:26:39;;;;;;;29.65;18.08;;;0.60;93.00;;;;;;5033017;28;20028;-75
2024/01/28 02:29:05;;;;;;;28.75;17.70;;;0.60;93.00;;;;;;5043349;28;20198;-73
2024/01/28 02:31:31;;;;;;;30.38;18.48;;;0.60;93.00;;;;;;5035811;28;20373;-73
2024/01/28 02:33:58;;;;;;;31.88;17.88;;;0.60;93.20;;;;;;5037538;28;20028;-74
2024/01/28 02:36:25;;;;;;;28.73;16.92;;;0.60;93.20;;;;;;5029889;28;20108;-73
2024/01/28 02:38:50;;;;;;;26.42;16.65;;;0.60;93.20;;;;;;5035256;28;20052;-74
2024/01/28 02:41:16;;;;;;;25.52;16.55;;;0.60;93.20;;;;;;5045771;28;20025;-73
2024/01/28 02:43:42;;;;;;;30.52;17.95;;;0.60;93.20;;;;;;5049269;28;20432;-74
2024/01/28 02:46:07;;;;;;;31.38;16.65;;;0.60;93.20;;;;;;5034832;28;20029;-73
2024/01/28 02:48:33;;;;;;;25.05;16.90;;;0.60;93.20;;;;;;5034097;28;20033;-74
2024/01/28 02:50:58;;;;;;;26.30;18.42;;;0.60;93.20;;;;;;5033197;28;20445;-73
2024/01/28 02:53:24;;;;;;;28.52;17.27;;;0.60;93.20;;;;;;5028573;28;20037;-74
2024/01/28 02:55:50;;;;;;;27.90;18.00;;;0.60;93.10;;;;;;5033434;28;20033;-73
2024/01/28 02:58:16;;;;;;;24.60;16.15;;;0.60;93.10;;;;;;5030682;28;20079;-73
2024/01/28 03:00:42;;;;;;;24.30;15.88;;;0.60;93.10;;;;;;5040665;28;20083;-73
2024/01/28 03:03:08;;;;;;;28.45;17.70;;;0.60;93.10;;;;;;5035010;28;20029;-73
2024/01/28 03:05:34;;;;;;;26.25;17.10;;;0.60;93.10;;;;;;5028124;28;20022;-73
2024/01/28 03:08:00;;;;;;;26.20;16.65;;;0.50;93.00;;;;;;5045376;28;20335;-74
2024/01/28 03:10:26;;;;;;;28.23;17.17;;;0.50;93.00;;;;;;5032557;28;20040;-74
2024/01/28 03:12:52;;;;;;;28.33;17.27;;;0.50;93.00;;;;;;5048642;28;20024;-74
2024/01/28 03:15:18;;;;;;;23.40;17.13;;;0.50;93.00;;;;;;5044736;28;20037;-75
2024/01/28 03:17:44;;;;;;;27.83;17.85;;;0.50;93.10;;;;;;5040386;28;20017;-73
2024/01/28 03:20:10;;;;;;;23.60;16.65;;;0.50;93.10;;;;;;5043184;28;20120;-72
2024/01/28 03:22:35;;;;;;;29.42;18.38;;;0.50;92.90;;;;;;5050872;28;20081;-73
2024/01/28 03:25:01;;;;;;;30.67;18.52;;;0.40;92.90;;;;;;5046672;28;20119;-74
2024/01/28 03:27:27;;;;;;;32.05;17.73;;;0.40;93.00;;;;;;5043035;28;20028;-74
2024/01/28 03:29:53;;;;;;;25.55;16.98;;;0.40;93.00;;;;;;5038546;28;20139;-84
2024/01/28 03:32:18;;;;;;;29.23;17.75;;;0.40;93.00;;;;;;5043585;28;20037;-73
2024/01/28 03:34:44;;;;;;;27.42;17.58;;;0.40;93.10;;;;;;5044984;28;20114;-73
2024/01/28 03:37:09;;;;;;;29.15;17.25;;;0.40;93.20;;;;;;5039647;28;20352;-74
2024/01/28 03:39:35;;;;;;;27.83;17.38;;;0.40;93.10;;;;;;5047701;28;20479;-73
2024/01/28 03:42:00;;;;;;;26.38;16.33;;;0.30;93.10;;;;;;5046791;28;20031;-73
2024/01/28 03:44:26;;;;;;;27.52;16.48;;;0.40;93.20;;;;;;5047147;28;20029;-73
2024/01/28 03:46:54;;;;;;;24.42;16.35;;;0.40;93.20;;;;;;5037190;28;20032;-73
2024/01/28 03:49:19;;;;;;;23.30;15.02;;;0.40;93.20;;;;;;5036344;28;20128;-73
2024/01/28 03:51:45;;;;;;;21.65;15.30;;;0.30;93.10;;;;;;5034455;28;20437;-73
2024/01/28 03:54:11;;;;;;;22.02;15.23;;;0.30;93.10;;;;;;5045172;28;20449;-73
2024/01/28 03:56:37;;;;;;;20.45;14.55;;;0.30;93.20;;;;;;5044628;28;20048;-72
2024/01/28 03:59:03;;;;;;;22.17;15.00;;;0.30;93.20;;;;;;5035601;28;20083;-73
2024/01/28 04:01:33;;;;;;;29.02;17.05;;;0.20;93.20;;;;;;5043228;28;20025;-73
2024/01/28 04:03:59;;;;;;;23.88;15.75;;;0.20;93.20;;;;;;5031758;28;20033;-73
2024/01/28 04:06:25;;;;;;;23.90;16.05;;;0.20;93.20;;;;;;5035382;28;20037;-83
2024/01/28 04:08:57;;;;;;;23.77;15.40;;;0.10;93.10;;;;;;5040138;28;20033;-73
2024/01/28 04:11:26;;;;;;;24.55;16.02;;;0.10;93.10;;;;;;5042740;28;20045;-72
2024/01/28 04:13:54;;;;;;;27.27;16.23;;;0.10;93.10;;;;;;5040765;28;20033;-72
2024/01/28 04:16:23;;;;;;;22.95;14.32;;;0.10;93.10;;;;;;5031015;28;20018;-72
2024/01/28 04:18:49;;;;;;;24.02;13.15;;;0.10;93.10;;;;;;5045119;28;20033;-72
2024/01/28 04:21:15;;;;;;;22.75;14.65;;;0.10;93.20;;;;;;5036958;28;20454;-72
2024/01/28 04:23:41;;;;;;;22.92;13.98;;;0.10;93.20;;;;;;5040164;28;20020;-73
2024/01/28 04:26:08;;;;;;;23.60;14.00;;;0.10;93.30;;;;;;5038492;28;20097;-73
2024/01/28 04:28:34;;;;;;;19.88;12.35;;;0.10;93.30;;;;;;5034573;28;20045;-75
2024/01/28 04:31:01;;;;;;;22.17;13.60;;;0.20;93.30;;;;;;5032625;28;20338;-72
2024/01/28 04:33:26;;;;;;;18.60;12.52;;;0.20;93.40;;;;;;5045516;28;20445;-72
2024/01/28 04:35:52;;;;;;;22.67;13.35;;;0.20;93.40;;;;;;5034097;28;20050;-73
2024/01/28 04:38:18;;;;;;;20.02;13.43;;;0.20;93.40;;;;;;5045407;28;20563;-73
2024/01/28 04:40:44;;;;;;;21.55;12.52;;;0.20;93.40;;;;;;5039409;28;20354;-72
2024/01/28 04:43:10;;;;;;;19.27;12.55;;;0.20;93.40;;;;;;5047214;28;20047;-73
2024/01/28 04:45:36;;;;;;;21.25;12.65;;;0.20;93.50;;;;;;5051232;28;20454;-73
2024/01/28 04:48:01;;;;;;;21.02;13.15;;;0.10;93.50;;;;;;5046331;28;20068;-72
2024/01/28 04:50:27;;;;;;;21.75;13.10;;;0.20;93.50;;;;;;5044412;28;20104;-73
2024/01/28 04:52:52;;;;;;;19.85;12.48;;;0.10;93.50;;;;;;5039604;28;20039;-72
2024/01/28 04:55:18;;;;;;;20.55;11.73;;;0.10;93.40;;;;;;5042427;28;20421;-72
2024/01/28 04:57:44;;;;;;;22.13;12.85;;;0.10;93.40;;;;;;5041549;28;20013;-72
2024/01/28 05:00:10;;;;;;;26.08;13.30;;;0.10;93.40;;;;;;5031019;28;20057;-73
2024/01/28 05:02:37;;;;;;;23.95;13.60;;;0.20;93.40;;;;;;5041234;28;20087;-73
2024/01/28 05:05:03;;;;;;;22.75;13.48;;;0.20;93.30;;;;;;5037576;28;20411;-73
2024/01/28 05:07:29;;;;;;;18.70;11.93;;;0.20;93.30;;;;;;5045479;28;20101;-72
2024/01/28 05:09:55;;;;;;;23.50;13.48;;;0.20;93.30;;;;;;5038205;28;20029;-73
2024/01/28 05:12:21;;;;;;;22.33;13.25;;;0.20;93.20;;;;;;5042113;28;20331;-71
2024/01/28 05:14:47;;;;;;;22.27;12.07;;;0.20;93.30;;;;;;5042194;28;20028;-74
2024/01/28 05:17:13;;;;;;;22.30;12.27;;;0.10;93.30;;;;;;5040735;28;20029;-73
2024/01/28 05:19:38;;;;;;;23.27;13.63;;;0.20;93.20;;;;;;5048498;28;20048;-74
2024/01/28 05:22:04;;;;;;;22.42;12.57;;;0.20;93.10;;;;;;5039309;28;20349;-74
2024/01/28 05:24:31;;;;;;;20.23;12.27;;;0.20;93.10;;;;;;5044682;28;20127;-74
2024/01/28 05:26:56;;;;;;;19.98;12.30;;;0.10;93.00;;;;;;5042680;28;20023;-74
2024/01/28 05:29:22;;;;;;;22.08;13.02;;;0.10;93.00;;;;;;5046415;28;20115;-74
2024/01/28 05:31:48;;;;;;;24.00;13.13;;;0.10;93.10;;;;;;5043193;28;20428;-74
2024/01/28 05:34:14;;;;;;;25.42;13.77;;;0.10;93.10;;;;;;5039392;28;20061;-74
2024/01/28 05:36:40;;;;;;;25.17;15.10;;;0.10;93.20;;;;;;5042026;28;20071;-74
2024/01/28 05:39:06;;;;;;;29.10;19.35;;;0.10;93.10;;;;;;5031323;28;20037;-74
2024/01/28 05:41:32;;;;;;;23.60;14.07;;;0.20;93.10;;;;;;5043091;28;20025;-74
2024/01/28 05:43:58;;;;;;;18.33;10.57;;;0.20;93.00;;;;;;5032853;28;20030;-74
2024/01/28 05:46:24;;;;;;;15.07;9.60;;;0.20;92.90;;;;;;5034026;28;20017;-74
2024/01/28 05:48:49;;;;;;;14.93;8.52;;;0.30;93.00;;;;;;5039730;28;20017;-74
2024/01/28 05:51:15;;;;;;;16.98;9.65;;;0.40;93.10;;;;;;5040771;28;20032;-74
2024/01/28 05:53:41;;;;;;;22.90;14.75;;;0.50;92.90;;;;;;5036964;28;20025;-74
2024/01/28 05:56:07;;;;;;;30.27;19.10;;;0.50;92.60;;;;;;5043120;28;20357;-73
2024/01/28 05:58:33;;;;;;;20.85;13.55;;;0.50;92.50;;;;;;5022926;28;20022;-73
2024/01/28 06:01:02;;;;;;;23.38;14.15;;;0.50;92.30;;;;;;5031352;28;20025;-73
2024/01/28 06:03:28;;;;;;;36.28;19.92;;;0.40;92.20;;;;;;5033472;28;20107;-73
2024/01/28 06:05:54;;;;;;;39.00;21.67;;;0.40;92.00;;;;;;5035572;28;20131;-73
2024/01/28 06:08:20;;;;;;;38.88;22.08;;;0.40;92.00;;;;;;5050391;28;20039;-73
2024/01/28 06:10:45;;;;;;;32.10;19.65;;;0.30;91.90;;;;;;5037890;28;20033;-74
2024/01/28 06:13:11;;;;;;;25.48;14.23;;;0.30;92.00;;;;;;5041578;28;20044;-74
2024/01/28 06:15:37;;;;;;;21.85;12.38;;;0.30;92.00;;;;;;5032591;28;20030;-74
2024/01/28 06:18:02;;;;;;;17.77;10.43;;;0.20;92.00;;;;;;5036291;28;20392;-72
2024/01/28 06:20:28;;;;;;;15.85;9.43;;;0.20;91.90;;;;;;5036981;28;20029;-73
2024/01/28 06:22:54;;;;;;;16.50;9.02;;;0.20;92.00;;;;;;5045260;28;20108;-73
2024/01/28 06:25:19;;;;;;;16.50;8.93;;;0.20;92.00;;;;;;5033973;28;20104;-73
2024/01/28 06:27:45;;;;;;;18.42;9.27;;;0.20;92.10;;;;;;5049659;28;20032;-73
2024/01/28 06:30:11;;;;;;;15.10;7.80;;;0.20;92.20;;;;;;5038092;28;20041;-73
2024/01/28 06:32:37;;;;;;;19.17;9.25;;;0.20;92.10;;;;;;5040403;28;20029;-73
2024/01/28 06:35:04;;;;;;;24.38;12.57;;;0.20;92.10;;;;;;5036467;28;20063;-72
2024/01/28 06:37:29;;;;;;;32.03;17.00;;;0.20;92.00;;;;;;5037968;28;20525;-73
2024/01/28 06:39:55;;;;;;;37.22;18.20;;;0.20;92.00;;;;;;5026829;28;20116;-73
2024/01/28 06:42:20;;;;;;;54.33;29.10;;;0.20;92.00;;;;;;5044298;28;20033;-72
2024/01/28 06:44:49;;;;;;;55.40;31.15;;;0.20;92.10;;;;;;5037863;28;20040;-72
2024/01/28 06:47:16;;;;;;;46.55;25.00;;;0.20;92.20;;;;;;5036193;28;20037;-81
2024/01/28 06:49:41;;;;;;;39.33;19.60;;;0.20;92.10;;;;;;5036632;28;20021;-73
2024/01/28 06:52:07;;;;;;;26.85;11.75;;;0.20;92.20;;;;;;5039804;28;20039;-72
2024/01/28 06:54:33;;;;;;;17.10;9.98;;;0.20;92.20;;;;;;5037867;28;20155;-73
2024/01/28 06:56:58;;;;;;;14.77;10.63;;;0.30;92.30;;;;;;5040217;28;20442;-73
2024/01/28 06:59:24;;;;;;;17.00;10.77;;;0.30;92.30;;;;;;5041810;28;20446;-73
2024/01/28 07:01:50;;;;;;;17.25;10.57;;;0.30;92.30;;;;;;5034864;28;20052;-73
2024/01/28 07:04:16;;;;;;;15.18;8.05;;;0.40;92.30;;;;;;5035373;28;20036;-72
2024/01/28 07:06:41;;;;;;;13.55;7.30;;;0.40;92.10;;;;;;5036104;28;20047;-73
2024/01/28 07:09:08;;;;;;;14.77;7.78;;;0.40;92.00;;;;;;5033722;28;20045;-72
2024/01/28 07:11:33;;;;;;;15.43;8.93;;;0.40;92.00;;;;;;5043548;28;20445;-73
2024/01/28 07:13:59;;;;;;;17.83;9.10;;;0.40;92.00;;;;;;5031158;28;20119;-72
2024/01/28 07:16:25;;;;;;;17.83;8.65;;;0.50;92.00;;;;;;5041424;28;20470;-73
2024/01/28 07:18:52;;;;;;;17.77;9.05;;;0.50;92.00;;;;;;5034619;28;20381;-77
2024/01/28 07:21:18;;;;;;;15.02;8.60;;;0.50;91.90;;;;;;5041233;28;20462;-72
2024/01/28 07:23:43;;;;;;;15.23;8.00;;;0.50;91.90;;;;;;5044009;28;20017;-74
2024/01/28 07:26:09;;;;;;;15.80;8.13;;;0.50;91.80;;;;;;5038051;28;20401;-74
2024/01/28 07:28:35;;;;;;;18.35;10.77;;;0.60;91.80;;;;;;5038476;28;20029;-73
2024/01/28 07:31:01;;;;;;;19.63;11.65;;;0.60;91.90;;;;;;5034566;28;20016;-73
2024/01/28 07:33:26;;;;;;;28.20;16.50;;;0.70;91.90;;;;;;5052420;28;20111;-73
2024/01/28 07:35:53;;;;;;;23.73;11.63;;;0.70;91.90;;;;;;5039670;28;20056;-74
2024/01/28 07:38:18;;;;;;;21.65;12.30;;;0.80;91.90;;;;;;5043315;28;20489;-73
2024/01/28 07:40:44;;;;;;;23.27;13.25;;;0.80;91.70;;;;;;5038981;28;20167;-72
2024/01/28 07:43:09;;;;;;;20.88;12.57;;;0.80;91.70;;;;;;5045779;28;20017;-73
2024/01/28 07:45:37;;;;;;;19.13;11.63;;;0.80;91.70;;;;;;5040537;28;20030;-76
2024/01/28 07:48:03;;;;;;;18.95;11.30;;;0.80;91.70;;;;;;5046747;28;20093;-73
2024/01/28 07:50:29;;;;;;;16.45;10.15;;;0.80;91.70;;;;;;5048623;28;20063;-73
2024/01/28 07:52:55;;;;;;;17.77;9.35;;;0.80;91.70;;;;;;5046261;28;20461;-75
2024/01/28 07:55:21;;;;;;;15.05;11.20;;;0.80;91.60;;;;;;5042126;28;20056;-73
2024/01/28 07:57:47;;;;;;;18.02;10.10;;;0.80;91.50;;;;;;5032768;28;20014;-74
2024/01/28 08:00:13;;;;;;;14.85;8.77;;;0.80;91.40;;;;;;5033368;28;20037;-75
2024/01/28 08:02:39;;;;;;;19.70;8.88;;;0.90;91.40;;;;;;5034423;28;20017;-84
2024/01/28 08:05:04;;;;;;;15.50;8.30;;;0.90;91.60;;;;;;5042838;28;20047;-73
2024/01/28 08:07:30;;;;;;;13.20;8.70;;;1.00;91.50;;;;;;5054670;28;20366;-73
2024/01/28 08:09:56;;;;;;;13.98;7.95;;;1.00;91.50;;;;;;5044205;28;20104;-73
2024/01/28 08:12:21;;;;;;;14.95;9.13;;;1.10;91.50;;;;;;5036955;28;20115;-75
2024/01/28 08:14:47;;;;;;;15.77;9.10;;;1.10;91.50;;;;;;5038762;28;20147;-74
2024/01/28 08:17:13;;;;;;;16.77;10.63;;;1.10;91.50;;;;;;5047306;28;20029;-73
2024/01/28 08:19:40;;;;;;;15.27;10.00;;;1.20;91.50;;;;;;5044231;28;20029;-73
2024/01/28 08:22:05;;;;;;;16.67;9.85;;;1.20;91.50;;;;;;5040496;28;20020;-74
2024/01/28 08:24:32;;;;;;;16.55;9.20;;;1.30;91.50;;;;;;5037790;28;20080;-73
2024/01/28 08:26:58;;;;;;;14.98;8.18;;;1.30;91.50;;;;;;5030418;28;20049;-74
2024/01/28 08:29:25;;;;;;;16.27;10.00;;;1.40;91.60;;;;;;5036913;28;20384;-73
2024/01/28 08:31:50;;;;;;;17.25;10.55;;;1.40;91.60;;;;;;5045555;28;20029;-74
2024/01/28 08:34:16;;;;;;;23.40;13.63;;;1.50;91.50;;;;;;5041813;28;20039;-73
2024/01/28 08:36:42;;;;;;;25.48;14.32;;;1.60;91.50;;;;;;5043223;28;20299;-80
2024/01/28 08:39:09;;;;;;;17.08;10.45;;;1.60;91.40;;;;;;5036417;28;20036;-74
2024/01/28 08:41:36;;;;;;;18.33;10.00;;;1.70;91.40;;;;;;5040994;28;20017;-74
2024/01/28 08:44:05;;;;;;;16.02;8.88;;;1.80;91.40;;;;;;5035601;28;20458;-73
2024/01/28 08:46:31;;;;;;;17.73;9.50;;;1.80;91.30;;;;;;5028334;28;20092;-74
2024/01/28 08:48:57;;;;;;;14.75;9.65;;;1.90;91.10;;;;;;5043267;28;20474;-74
2024/01/28 08:51:22;;;;;;;14.98;9.63;;;2.00;91.20;;;;;;5039153;28;20044;-73
2024/01/28 08:53:48;;;;;;;16.63;9.82;;;2.10;91.10;;;;;;5032602;28;20082;-74
2024/01/28 08:56:13;;;;;;;15.60;10.02;;;2.10;90.90;;;;;;5044607;28;20021;-73
2024/01/28 08:58:39;;;;;;;15.10;9.93;;;2.30;91.00;;;;;;5034223;28;20017;-74
2024/01/28 09:01:06;;;;;;;15.38;10.07;;;2.50;90.90;;;;;;5041563;28;20040;-73
2024/01/28 09:03:31;;;;;;;17.23;11.15;;;2.60;90.80;;;;;;5039302;28;20450;-75
2024/01/28 09:05:57;;;;;;;16.08;10.57;;;2.80;90.60;;;;;;5042459;28;20047;-74
2024/01/28 09:08:23;;;;;;;16.90;10.15;;;3.00;90.30;;;;;;5034606;28;20025;-76
2024/01/28 09:10:48;;;;;;;16.90;10.18;;;3.10;89.90;;;;;;5044035;28;20119;-73
2024/01/28 09:13:14;;;;;;;15.35;8.93;;;3.20;89.20;;;;;;5041180;28;20042;-74
2024/01/28 09:15:39;;;;;;;13.52;8.68;;;3.40;88.70;;;;;;5037661;28;20044;-74
2024/01/28 09:18:06;;;;;;;13.32;8.10;;;3.60;89.00;;;;;;5034124;28;20024;-73
2024/01/28 09:20:31;;;;;;;15.75;8.52;;;3.80;89.00;;;;;;5045111;28;20052;-73
2024/01/28 09:22:57;;;;;;;13.20;7.90;;;4.00;88.20;;;;;;5035489;28;20021;-74
2024/01/28 09:25:23;;;;;;;13.73;8.30;;;4.20;88.00;;;;;;5041713;28;20068;-74
2024/01/28 09:27:50;;;;;;;15.68;7.85;;;4.40;87.60;;;;;;5042046;28;20097;-73
2024/01/28 09:30:15;;;;;;;11.90;7.43;;;4.50;87.30;;;;;;5041099;28;22242;-73
2024/01/28 09:32:41;;;;;;;11.82;8.05;;;4.70;86.90;;;;;;5039080;28;20108;-72
2024/01/28 09:35:07;;;;;;;14.43;7.53;;;4.70;86.10;;;;;;5037163;28;20568;-74
2024/01/28 09:37:33;;;;;;;12.00;7.47;;;4.90;86.30;;;;;;5044108;28;20111;-73
2024/01/28 09:39:59;;;;;;;12.70;7.93;;;5.10;86.20;;;;;;5045993;28;20017;-74
2024/01/28 09:42:42;;;;;;;15.95;8.15;;;5.20;85.70;;;;;;5035835;28;20030;-72
2024/01/28 09:45:09;;;;;;;13.25;7.72;;;5.30;85.10;;;;;;5030991;28;20029;-73
2024/01/28 09:47:36;;;;;;;12.48;8.13;;;5.50;84.10;;;;;;5039932;28;20021;-73
2024/01/28 09:50:04;;;;;;;14.90;8.10;;;5.60;83.90;;;;;;5040717;28;20064;-72
2024/01/28 09:52:30;;;;;;;13.88;7.22;;;5.60;84.00;;;;;;5038030;28;20021;-72
2024/01/28 09:54:56;;;;;;;14.05;7.57;;;5.70;83.60;;;;;;5042569;28;20537;-73
2024/01/28 09:57:23;;;;;;;16.88;6.90;;;5.80;83.90;;;;;;5050844;28;20099;-72
2024/01/28 09:59:49;;;;;;;11.82;6.97;;;6.00;83.40;;;;;;5042307;28;20033;-72
2024/01/28 10:02:17;;;;;;;11.82;6.93;;;6.10;83.90;;;;;;5030181;28;20029;-72
2024/01/28 10:04:45;;;;;;;13.75;6.88;;;6.20;82.80;;;;;;5041213;28;20028;-72
2024/01/28 10:07:11;;;;;;;12.45;6.75;;;6.40;82.90;;;;;;5043271;28;20441;-73
2024/01/28 10:09:37;;;;;;;10.15;6.60;;;6.50;82.60;;;;;;5035334;28;20037;-73
2024/01/28 10:12:04;;;;;;;16.52;11.60;;;6.60;81.90;;;;;;5034836;28;20051;-72
2024/01/28 10:14:30;;;;;;;13.90;9.38;;;6.60;81.70;;;;;;5034810;28;20025;-71
2024/01/28 10:16:58;;;;;;;15.02;8.45;;;6.80;81.80;;;;;;5035620;28;20027;-73
2024/01/28 10:19:24;;;;;;;12.60;7.45;;;7.00;81.70;;;;;;5053658;28;20029;-73
2024/01/28 10:21:50;;;;;;;13.07;6.63;;;7.10;81.20;;;;;;5030750;28;20025;-73
2024/01/28 10:24:18;;;;;;;12.02;5.55;;;7.20;80.30;;;;;;5032889;28;20030;-73
2024/01/28 10:26:44;;;;;;;12.10;6.18;;;7.30;80.40;;;;;;5039030;28;20020;-72
2024/01/28 10:29:12;;;;;;;13.02;7.05;;;7.30;80.00;;;;;;5052485;28;20028;-73
2024/01/28 10:31:38;;;;;;;14.05;6.72;;;7.40;79.90;;;;;;5034371;28;20029;-73
2024/01/28 10:34:03;;;;;;;11.57;6.18;;;7.50;79.80;;;;;;5036940;28;20167;-73
2024/01/28 10:36:33;;;;;;;13.30;6.97;;;7.50;79.20;;;;;;5030151;28;20405;-73
2024/01/28 10:39:03;;;;;;;12.38;7.10;;;7.70;79.20;;;;;;5027172;28;20068;-73
2024/01/28 10:41:30;;;;;;;13.90;6.97;;;7.80;78.70;;;;;;5031607;28;20120;-73
2024/01/28 10:44:15;;;;;;;12.27;5.88;;;7.80;78.30;;;;;;5026180;28;20063;-72
2024/01/28 10:46:41;;;;;;;;;;;7.80;76.90;;;;;;5037793;28;20466;-73
2024/01/28 10:49:09;;;;;;;10.88;6.55;;;7.90;77.00;;;;;;5028359;28;19921;-72
2024/01/28 10:51:36;;;;;;;12.77;6.57;;;7.90;76.60;;;;;;5036236;28;20211;-73
2024/01/28 10:54:09;;;;;;;12.15;6.82;;;8.00;77.10;;;;;;5024252;28;20038;-72
2024/01/28 10:56:39;;;;;;;15.73;8.98;;;8.10;76.80;;;;;;5029178;28;20454;-72
2024/01/28 10:59:05;;;;;;;24.50;14.18;;;8.30;76.60;;;;;;5026687;28;20941;-71
2024/01/28 11:01:32;;;;;;;32.92;21.55;;;8.40;76.40;;;;;;5031569;28;20028;-75
2024/01/28 11:03:59;;;;;;;33.20;20.52;;;8.50;76.30;;;;;;5027720;28;20526;-73
2024/01/28 11:06:26;;;;;;;16.65;10.10;;;8.60;75.20;;;;;;5037184;28;20021;-73
2024/01/28 11:08:58;;;;;;;45.78;27.70;;;8.60;75.40;;;;;;5032026;28;20085;-72
2024/01/28 11:11:24;;;;;;;32.17;18.00;;;8.50;75.30;;;;;;5037866;28;20059;-73
2024/01/28 11:13:49;;;;;;;25.58;15.45;;;8.50;76.30;;;;;;5042183;28;20107;-73
2024/01/28 11:16:16;;;;;;;15.85;8.70;;;8.60;76.20;;;;;;5032528;28;20025;-72
2024/01/28 11:18:57;;;;;;;14.10;6.28;;;8.70;75.80;;;;;;5033130;28;20420;-73
2024/01/28 11:21:24;;;;;;;14.95;6.97;;;8.80;75.30;;;;;;5036867;28;20013;-73
2024/01/28 11:23:52;;;;;;;13.07;6.47;;;9.00;75.70;;;;;;5033716;28;20053;-74
2024/01/28 11:26:19;;;;;;;13.20;6.65;;;9.10;75.40;;;;;;5042462;28;20114;-73
2024/01/28 11:28:49;;;;;;;12.07;6.10;;;9.30;74.60;;;;;;5036162;28;20012;-74
2024/01/28 11:31:32;;;;;;;13.73;6.47;;;9.50;74.40;;;;;;5028998;28;20021;-75
2024/01/28 11:34:27;;;;;;;11.05;6.40;;;9.50;73.30;;;;;;5025485;28;20478;-73
2024/01/28 11:36:53;;;;;;;12.25;6.85;;;9.60;73.10;;;;;;5038838;28;20037;-72
2024/01/28 11:39:37;;;;;;;13.15;6.45;;;9.70;73.40;;;;;;5036977;28;20124;-72
2024/01/28 11:42:03;;;;;;;9.85;5.72;;;9.80;73.10;;;;;;5036865;28;20036;-73
2024/01/28 11:44:29;;;;;;;10.50;5.95;;;9.90;73.20;;;;;;5036435;28;20025;-71
2024/01/28 11:46:55;;;;;;;11.70;6.15;;;10.00;73.30;;;;;;5041332;28;20476;-71
2024/01/28 11:49:21;;;;;;;14.65;6.88;;;10.10;72.80;;;;;;5041185;28;20108;-70
2024/01/28 11:51:47;;;;;;;12.25;6.47;;;9.90;72.70;;;;;;5050730;28;20064;-70
2024/01/28 11:54:13;;;;;;;12.50;7.55;;;9.90;72.70;;;;;;5054374;28;20041;-71
2024/01/28 11:56:39;;;;;;;10.60;6.30;;;10.00;72.70;;;;;;5040103;28;20070;-70
2024/01/28 11:59:06;;;;;;;11.05;7.07;;;10.00;72.50;;;;;;5037331;28;20434;-70
2024/01/28 12:01:32;;;;;;;11.30;6.80;;;10.10;72.50;;;;;;5052871;28;20020;-69
2024/01/28 12:03:58;;;;;;;13.57;7.32;;;10.30;72.70;;;;;;5038534;28;20094;-69
2024/01/28 12:06:29;;;;;;;12.27;6.93;;;10.20;72.30;;;;;;5042629;28;20021;-70
2024/01/28 12:08:56;;;;;;;12.10;6.63;;;10.20;72.20;;;;;;5034487;28;20436;-70
2024/01/28 12:11:24;;;;;;;12.20;6.88;;;10.10;72.20;;;;;;5036505;28;20104;-69
2024/01/28 12:13:50;;;;;;;10.90;6.80;;;10.00;72.70;;;;;;5032291;28;20048;-69
2024/01/28 12:16:21;;;;;;;16.02;8.50;;;10.10;72.20;;;;;;5040952;28;20021;-71
2024/01/28 12:18:47;;;;;;;11.68;6.40;;;10.10;72.70;;;;;;5027192;28;20048;-69
2024/01/28 12:21:19;;;;;;;13.40;7.55;;;10.10;72.90;;;;;;5037175;28;20024;-69
2024/01/28 12:23:57;;;;;;;13.63;7.95;;;10.10;72.30;;;;;;5039645;28;20017;-69
2024/01/28 12:26:24;;;;;;;11.00;7.57;;;10.10;72.60;;;;;;5036066;28;20477;-69
2024/01/28 12:28:51;;;;;;;13.30;7.72;;;10.10;72.70;;;;;;5052106;28;20071;-70
2024/01/28 12:31:20;;;;;;;12.85;7.10;;;10.10;72.30;;;;;;5056189;28;20028;-70
2024/01/28 12:33:47;;;;;;;10.77;6.47;;;10.00;72.60;;;;;;5053592;28;20044;-70
2024/01/28 12:36:13;;;;;;;13.63;7.30;;;10.00;72.80;;;;;;5042686;28;20117;-70